Time;durP1;ratioP1;P1;durP2;ratioP2;P2;SDS_P1;SDS_P2;PMS_P1;PMS_P2;Temp;Humidity;BMP_temperature;BMP_pressure;BME280_temperature;BME280_humidity;BME280_pressure;Samples;Min_cycle;Max_cycle;Signal;HPM_P1;HPM_P2
2022/04/12 00:00:41;;;;;;;1.57;1.10;;;17.80;49.30;;;;;;5036230;28;20181;-92
2022/04/12 00:03:07;;;;;;;1.90;1.00;;;17.80;49.30;;;;;;5038569;28;20291;-92
2022/04/12 00:05:37;;;;;;;1.23;1.10;;;17.80;49.30;;;;;;5038808;28;20169;-92
2022/04/12 00:08:04;;;;;;;1.10;1.00;;;17.70;49.30;;;;;;5038529;28;20192;-91
2022/04/12 00:10:31;;;;;;;0.90;0.90;;;17.70;49.30;;;;;;5037586;28;20182;-91
2022/04/12 00:12:58;;;;;;;1.80;1.30;;;17.70;49.30;;;;;;5036446;28;20176;-91
2022/04/12 00:15:24;;;;;;;1.20;1.07;;;17.70;49.30;;;;;;5037473;28;20169;-91
2022/04/12 00:20:35;;;;;;;1.10;1.00;;;17.70;49.30;;;;;;5037828;28;20179;-90
2022/04/12 00:23:01;;;;;;;2.00;1.10;;;17.70;49.30;;;;;;5035263;28;20201;-91
2022/04/12 00:25:28;;;;;;;1.40;1.00;;;17.70;49.30;;;;;;5035959;28;20563;-91
2022/04/12 00:27:55;;;;;;;1.33;1.10;;;17.70;49.20;;;;;;5037128;28;20179;-91
2022/04/12 00:30:22;;;;;;;1.20;1.10;;;17.70;49.30;;;;;;5036813;28;20187;-91
2022/04/12 00:32:50;;;;;;;2.30;1.10;;;17.60;49.20;;;;;;5036360;28;20201;-91
2022/04/12 00:35:16;;;;;;;1.13;1.03;;;17.60;49.20;;;;;;5035556;28;20598;-91
2022/04/12 00:37:42;;;;;;;1.93;0.97;;;17.60;49.20;;;;;;5035604;28;20271;-91
2022/04/12 00:40:09;;;;;;;1.90;1.20;;;17.60;49.20;;;;;;5034974;28;20280;-91
2022/04/12 00:42:34;;;;;;;1.07;0.97;;;17.60;49.20;;;;;;5034675;28;20209;-92
2022/04/12 00:45:00;;;;;;;1.33;1.00;;;17.60;49.20;;;;;;5035198;28;20171;-92
2022/04/12 00:47:26;;;;;;;1.53;1.30;;;17.60;49.20;;;;;;5035434;28;20172;-92
2022/04/12 00:49:52;;;;;;;1.67;1.03;;;17.60;49.20;;;;;;5036946;28;20173;-92
2022/04/12 00:52:18;;;;;;;1.97;1.20;;;17.50;49.10;;;;;;5036957;28;20505;-92
2022/04/12 00:54:44;;;;;;;1.53;1.20;;;17.50;49.20;;;;;;5036695;28;20219;-92
2022/04/12 00:57:12;;;;;;;1.20;1.10;;;17.50;49.20;;;;;;5037538;28;20169;-91
2022/04/12 00:59:38;;;;;;;1.07;1.00;;;17.50;49.20;;;;;;5036153;28;20184;-92
2022/04/12 01:02:07;;;;;;;1.80;1.00;;;17.50;49.20;;;;;;5036395;28;20540;-92
2022/04/12 01:04:33;;;;;;;1.77;1.20;;;17.50;49.20;;;;;;5036158;28;20189;-92
2022/04/12 01:07:00;;;;;;;1.10;1.00;;;17.50;49.20;;;;;;5035616;28;20169;-92
2022/04/12 01:09:27;;;;;;;1.17;1.07;;;17.50;49.20;;;;;;5036826;28;20276;-92
2022/04/12 01:11:53;;;;;;;1.30;1.20;;;17.50;49.20;;;;;;5035910;28;20183;-91
2022/04/12 01:14:19;;;;;;;1.17;1.07;;;17.50;49.20;;;;;;5035080;28;20520;-92
2022/04/12 01:16:45;;;;;;;3.13;1.13;;;17.50;49.20;;;;;;5036551;28;20194;-90
2022/04/12 01:19:11;;;;;;;1.80;1.20;;;17.50;49.20;;;;;;5035882;28;20184;-90
2022/04/12 01:22:00;;;;;;;1.50;1.20;;;17.40;49.10;;;;;;5036332;28;20192;-90
2022/04/12 01:24:26;;;;;;;1.93;1.20;;;17.40;49.10;;;;;;5035503;28;20202;-90
2022/04/12 01:26:53;;;;;;;2.27;1.20;;;17.40;49.10;;;;;;5034374;28;20569;-90
2022/04/12 01:29:18;;;;;;;1.07;0.97;;;17.40;49.10;;;;;;5034311;28;20347;-91
2022/04/12 01:31:44;;;;;;;1.60;1.23;;;17.40;49.10;;;;;;5033726;28;20275;-91
2022/04/12 01:34:10;;;;;;;1.20;1.10;;;17.40;49.10;;;;;;5035676;28;20180;-90
2022/04/12 01:36:36;;;;;;;2.17;1.30;;;17.40;49.10;;;;;;5035364;28;20187;-90
2022/04/12 01:39:02;;;;;;;1.50;1.10;;;17.40;49.20;;;;;;5035579;28;20179;-90
2022/04/12 01:41:28;;;;;;;1.03;0.90;;;17.40;49.20;;;;;;5036825;28;20187;-90
2022/04/12 01:43:53;;;;;;;1.13;0.90;;;17.40;49.20;;;;;;5036496;28;20511;-91
2022/04/12 01:46:19;;;;;;;1.20;1.10;;;17.40;49.10;;;;;;5035921;28;20261;-90
2022/04/12 01:48:47;;;;;;;1.57;1.17;;;17.40;49.20;;;;;;5034530;28;20447;-90
2022/04/12 01:51:13;;;;;;;1.40;1.03;;;17.40;49.10;;;;;;5034576;28;20179;-91
2022/04/12 01:53:39;;;;;;;1.10;1.00;;;17.30;49.10;;;;;;5034011;28;20251;-91
2022/04/12 01:56:05;;;;;;;1.37;1.00;;;17.30;49.10;;;;;;5036050;28;20180;-90
2022/04/12 01:58:32;;;;;;;1.80;1.10;;;17.30;49.10;;;;;;5036246;28;20186;-90
2022/04/12 02:00:59;;;;;;;1.50;1.13;;;17.30;49.10;;;;;;5036029;28;20184;-90
2022/04/12 02:03:24;;;;;;;1.33;1.03;;;17.30;49.10;;;;;;5036749;28;20633;-90
2022/04/12 02:05:51;;;;;;;1.70;1.10;;;17.30;49.10;;;;;;5035909;28;20179;-90
2022/04/12 02:08:17;;;;;;;1.47;1.30;;;17.30;49.20;;;;;;5035932;28;20258;-90
2022/04/12 02:10:43;;;;;;;0.80;0.80;;;17.30;49.10;;;;;;5034808;28;20424;-90
2022/04/12 02:13:09;;;;;;;1.60;1.20;;;17.30;49.20;;;;;;5033871;28;20628;-90
2022/04/12 02:15:35;;;;;;;1.27;1.00;;;17.30;49.10;;;;;;5033448;28;20572;-90
2022/04/12 02:18:01;;;;;;;1.67;1.10;;;17.30;49.20;;;;;;5035267;28;20206;-90
2022/04/12 02:20:27;;;;;;;1.17;1.07;;;17.30;49.20;;;;;;5035706;28;20186;-90
2022/04/12 02:22:53;;;;;;;1.90;1.20;;;17.30;49.20;;;;;;5035785;28;20491;-90
2022/04/12 02:25:19;;;;;;;1.63;1.10;;;17.30;49.20;;;;;;5035300;28;20571;-90
2022/04/12 02:27:45;;;;;;;1.50;0.90;;;17.20;49.20;;;;;;5035806;28;20173;-90
2022/04/12 02:30:13;;;;;;;1.27;0.90;;;17.20;49.20;;;;;;5035851;28;20221;-90
2022/04/12 02:32:41;;;;;;;1.00;0.90;;;17.20;49.20;;;;;;5035009;28;20190;-90
2022/04/12 02:35:08;;;;;;;1.23;1.00;;;17.20;49.60;;;;;;5033284;28;20179;-90
2022/04/12 02:37:34;;;;;;;1.10;1.00;;;17.20;49.20;;;;;;5034048;28;20263;-90
2022/04/12 02:40:00;;;;;;;1.20;1.00;;;17.20;49.20;;;;;;5034515;28;20175;-90
2022/04/12 02:42:26;;;;;;;1.10;1.00;;;17.20;49.20;;;;;;5034906;28;20210;-90
2022/04/12 02:44:52;;;;;;;1.20;0.90;;;17.20;49.20;;;;;;5034978;28;20176;-90
2022/04/12 02:47:18;;;;;;;1.07;0.97;;;17.20;49.20;;;;;;5035012;28;20563;-90
2022/04/12 02:49:43;;;;;;;1.57;1.10;;;17.20;49.20;;;;;;5034922;28;20534;-90
2022/04/12 02:52:09;;;;;;;1.30;1.00;;;17.20;49.20;;;;;;5035014;28;20424;-90
2022/04/12 02:54:35;;;;;;;1.20;1.00;;;17.20;49.20;;;;;;5034837;28;20178;-91
2022/04/12 02:57:01;;;;;;;1.17;1.00;;;17.20;49.20;;;;;;5033858;28;20185;-91
2022/04/12 02:59:27;;;;;;;1.57;1.00;;;17.10;49.20;;;;;;5032780;28;20173;-90
2022/04/12 03:01:52;;;;;;;1.00;0.97;;;17.10;49.20;;;;;;5032816;28;20214;-90
2022/04/12 03:04:18;;;;;;;1.20;1.00;;;17.10;49.20;;;;;;5035049;28;20425;-90
2022/04/12 03:06:44;;;;;;;1.10;1.00;;;17.10;49.20;;;;;;5035415;28;20254;-90
2022/04/12 03:09:11;;;;;;;1.23;1.13;;;17.10;49.10;;;;;;5035785;28;20556;-90
2022/04/12 03:11:38;;;;;;;1.87;1.00;;;17.10;49.10;;;;;;5034442;28;20179;-90
2022/04/12 03:14:04;;;;;;;1.07;0.90;;;17.10;49.10;;;;;;5034409;28;20589;-90
2022/04/12 03:16:30;;;;;;;1.20;0.97;;;17.10;49.10;;;;;;5033866;28;20176;-91
2022/04/12 03:18:56;;;;;;;1.23;0.90;;;17.10;49.10;;;;;;5032729;28;20169;-91
2022/04/12 03:21:22;;;;;;;1.20;1.10;;;17.10;49.10;;;;;;5031862;28;20252;-90
2022/04/12 03:23:47;;;;;;;1.37;1.10;;;17.10;49.10;;;;;;5031361;28;20264;-91
2022/04/12 03:26:13;;;;;;;1.10;1.00;;;17.10;49.10;;;;;;5033351;28;20208;-90
2022/04/12 03:28:39;;;;;;;0.90;0.90;;;17.10;49.10;;;;;;5035073;28;20564;-90
2022/04/12 03:31:04;;;;;;;1.90;1.13;;;17.10;49.10;;;;;;5033841;28;20585;-90
2022/04/12 03:33:30;;;;;;;1.10;1.00;;;17.10;49.10;;;;;;5033100;28;20486;-90
2022/04/12 03:35:56;;;;;;;0.87;0.80;;;17.10;49.10;;;;;;5033601;28;20217;-90
2022/04/12 03:38:22;;;;;;;1.23;1.10;;;17.10;49.10;;;;;;5033589;28;20237;-90
2022/04/12 03:40:47;;;;;;;1.50;1.00;;;17.00;49.10;;;;;;5032295;28;20180;-90
2022/04/12 03:43:13;;;;;;;1.23;1.07;;;17.10;49.10;;;;;;5031671;28;20207;-90
2022/04/12 03:45:39;;;;;;;0.97;0.83;;;17.10;49.10;;;;;;5031409;28;20178;-90
2022/04/12 03:48:08;;;;;;;0.87;0.87;;;17.00;49.10;;;;;;5032842;28;20234;-90
2022/04/12 03:50:36;;;;;;;1.00;0.80;;;17.00;49.10;;;;;;5034378;28;20459;-90
2022/04/12 03:53:03;;;;;;;1.43;1.00;;;17.00;49.00;;;;;;5033607;28;20180;-90
2022/04/12 03:55:35;;;;;;;1.00;0.90;;;17.00;49.00;;;;;;5032793;28;20462;-90
2022/04/12 03:58:06;;;;;;;1.10;0.97;;;17.00;49.10;;;;;;5033568;28;20552;-90
2022/04/12 04:00:33;;;;;;;1.30;1.17;;;17.00;49.10;;;;;;5033287;28;20177;-90
2022/04/12 04:02:59;;;;;;;1.13;1.00;;;17.00;49.00;;;;;;5032932;28;20210;-91
2022/04/12 04:05:25;;;;;;;1.20;1.10;;;17.00;49.10;;;;;;5031851;28;20170;-91
2022/04/12 04:07:52;;;;;;;1.20;0.90;;;17.00;49.00;;;;;;5031638;28;20226;-91
2022/04/12 04:10:18;;;;;;;1.00;0.90;;;17.00;49.00;;;;;;5031180;28;20169;-91
2022/04/12 04:12:44;;;;;;;1.17;0.90;;;17.00;49.00;;;;;;5033204;28;20262;-91
2022/04/12 04:15:14;;;;;;;1.20;0.97;;;17.00;49.00;;;;;;5033506;28;20207;-92
2022/04/12 04:17:45;;;;;;;1.10;1.00;;;17.00;49.00;;;;;;5033171;28;20475;-91
2022/04/12 04:20:17;;;;;;;1.17;1.00;;;17.00;49.00;;;;;;5033102;28;20178;-91
2022/04/12 04:22:43;;;;;;;1.00;1.00;;;17.00;49.00;;;;;;5032761;28;20314;-91
2022/04/12 04:25:10;;;;;;;0.90;0.80;;;17.00;49.00;;;;;;5032794;28;20176;-91
2022/04/12 04:27:36;;;;;;;0.97;0.90;;;17.00;49.00;;;;;;5031781;28;20175;-91
2022/04/12 04:30:04;;;;;;;1.03;0.93;;;17.00;49.00;;;;;;5034566;28;20463;-91
2022/04/12 04:32:31;;;;;;;1.00;0.90;;;17.00;49.00;;;;;;5035107;28;20190;-90
2022/04/12 04:34:56;;;;;;;0.80;0.80;;;17.00;49.00;;;;;;5035978;28;20189;-91
2022/04/12 04:37:22;;;;;;;1.20;1.00;;;17.00;49.00;;;;;;5035713;28;20776;-91
2022/04/12 04:39:48;;;;;;;1.00;0.90;;;16.90;48.90;;;;;;5035958;28;20178;-91
2022/04/12 04:42:14;;;;;;;1.33;0.90;;;16.90;48.90;;;;;;5036123;28;20234;-91
2022/04/12 04:44:39;;;;;;;0.93;0.90;;;17.00;49.00;;;;;;5035943;28;20172;-92
2022/04/12 04:47:05;;;;;;;1.40;1.00;;;16.90;48.90;;;;;;5036781;28;20164;-92
2022/04/12 04:49:31;;;;;;;1.00;0.80;;;16.90;48.90;;;;;;5035427;28;20178;-93
2022/04/12 04:51:57;;;;;;;1.23;1.00;;;16.90;48.90;;;;;;5033523;28;20270;-92
2022/04/12 04:54:22;;;;;;;1.03;1.00;;;17.00;48.90;;;;;;5032946;28;20177;-92
2022/04/12 04:56:48;;;;;;;1.30;0.90;;;17.00;48.90;;;;;;5035621;28;20440;-92
2022/04/12 04:59:14;;;;;;;0.90;0.90;;;17.00;48.90;;;;;;5035339;28;20174;-93
2022/04/12 05:01:40;;;;;;;1.00;0.90;;;17.00;48.90;;;;;;5035171;28;20204;-93
2022/04/12 05:04:06;;;;;;;1.23;1.10;;;17.00;48.90;;;;;;5035148;28;20191;-92
2022/04/12 05:06:31;;;;;;;1.17;1.00;;;17.00;48.90;;;;;;5034493;28;20189;-92
2022/04/12 05:08:57;;;;;;;1.10;1.00;;;17.00;48.80;;;;;;5035765;28;20184;-91
2022/04/12 05:11:23;;;;;;;1.00;0.90;;;17.00;48.80;;;;;;5033118;28;20238;-91
2022/04/12 05:13:49;;;;;;;1.37;1.07;;;17.00;48.80;;;;;;5031276;28;20186;-91
2022/04/12 05:16:14;;;;;;;1.10;0.90;;;17.00;48.80;;;;;;5032802;28;20445;-91
2022/04/12 05:18:40;;;;;;;1.30;1.10;;;17.00;48.80;;;;;;5033858;28;20471;-91
2022/04/12 05:21:06;;;;;;;1.17;1.07;;;17.00;48.80;;;;;;5033160;28;20180;-91
2022/04/12 05:23:33;;;;;;;1.03;0.97;;;17.00;48.80;;;;;;5033025;28;20210;-91
2022/04/12 05:25:59;;;;;;;1.27;0.93;;;17.00;48.70;;;;;;5032247;28;20175;-92
2022/04/12 05:28:25;;;;;;;1.60;1.10;;;17.00;48.70;;;;;;5033320;28;20178;-92
2022/04/12 05:30:51;;;;;;;0.90;0.90;;;17.00;48.70;;;;;;5034857;28;20271;-91
2022/04/12 05:33:17;;;;;;;1.63;1.00;;;17.00;48.70;;;;;;5032373;28;20203;-91
2022/04/12 05:35:42;;;;;;;1.77;0.90;;;17.00;48.60;;;;;;5032188;28;20179;-92
2022/04/12 05:38:08;;;;;;;1.47;1.00;;;17.00;48.60;;;;;;5031780;28;20501;-91
2022/04/12 05:40:34;;;;;;;1.47;1.00;;;17.00;48.60;;;;;;5030201;28;20184;-91
2022/04/12 05:43:00;;;;;;;2.40;1.00;;;17.00;48.60;;;;;;5032628;28;20219;-91
2022/04/12 05:45:26;;;;;;;1.07;0.97;;;17.00;48.60;;;;;;5033143;28;20169;-91
2022/04/12 05:47:53;;;;;;;1.10;1.00;;;17.00;48.60;;;;;;5031672;28;20191;-91
2022/04/12 05:50:25;;;;;;;0.80;0.80;;;17.10;48.60;;;;;;5032532;28;20549;-91
2022/04/12 05:52:51;;;;;;;1.30;1.00;;;17.10;48.50;;;;;;5032089;28;20365;-91
2022/04/12 05:55:18;;;;;;;1.07;0.97;;;17.20;48.50;;;;;;5030777;28;20183;-91
2022/04/12 05:57:56;;;;;;;1.23;1.03;;;17.20;48.40;;;;;;5030607;28;20267;-91
2022/04/12 06:00:24;;;;;;;2.17;0.97;;;17.30;48.30;;;;;;5030620;28;20213;-91
2022/04/12 06:02:51;;;;;;;1.20;1.00;;;17.30;48.20;;;;;;5029633;28;20208;-91
2022/04/12 06:05:18;;;;;;;0.90;0.90;;;17.40;48.20;;;;;;5028552;28;20389;-91
2022/04/12 06:07:44;;;;;;;0.90;0.90;;;17.50;48.10;;;;;;5030235;28;20263;-91
2022/04/12 06:10:12;;;;;;;1.00;0.83;;;17.50;48.00;;;;;;5030343;28;20459;-91
2022/04/12 06:12:38;;;;;;;1.57;0.80;;;17.60;47.90;;;;;;5031502;28;20176;-91
2022/04/12 06:15:05;;;;;;;1.20;0.93;;;17.60;47.90;;;;;;5030861;28;20187;-91
2022/04/12 06:17:36;;;;;;;0.90;0.90;;;17.60;47.80;;;;;;5032160;28;20241;-91
2022/04/12 06:20:05;;;;;;;1.50;0.90;;;17.60;47.70;;;;;;5030979;28;20355;-91
2022/04/12 06:22:31;;;;;;;1.00;0.90;;;17.70;47.70;;;;;;5030131;28;20255;-91
2022/04/12 06:24:57;;;;;;;0.80;0.80;;;17.70;47.60;;;;;;5029385;28;20172;-91
2022/04/12 06:27:45;;;;;;;1.17;1.00;;;17.90;47.50;;;;;;5031044;28;20403;-91
2022/04/12 06:30:14;;;;;;;1.07;0.97;;;18.00;47.30;;;;;;5030964;28;20175;-91
2022/04/12 06:32:41;;;;;;;1.10;0.97;;;18.10;47.20;;;;;;5031119;28;20188;-91
2022/04/12 06:35:09;;;;;;;1.23;1.03;;;18.10;47.10;;;;;;5030470;28;20568;-91
2022/04/12 06:37:35;;;;;;;1.00;0.90;;;18.20;47.40;;;;;;5032142;28;20190;-92
2022/04/12 06:40:01;;;;;;;2.10;1.10;;;18.20;46.90;;;;;;5031876;28;20188;-91
2022/04/12 06:42:27;;;;;;;1.23;1.07;;;18.40;46.70;;;;;;5030731;28;20200;-91
2022/04/12 06:44:53;;;;;;;1.27;1.07;;;18.60;46.50;;;;;;5029190;28;20741;-91
2022/04/12 06:47:19;;;;;;;1.00;0.93;;;18.80;46.20;;;;;;5028539;28;20179;-91
2022/04/12 06:49:50;;;;;;;1.30;1.10;;;18.90;46.00;;;;;;5031449;28;20173;-91
2022/04/12 06:52:18;;;;;;;1.23;1.10;;;19.00;45.90;;;;;;5030153;28;20426;-92
2022/04/12 06:54:44;;;;;;;1.20;1.10;;;19.10;45.70;;;;;;5029512;28;20179;-92
2022/04/12 06:57:11;;;;;;;0.93;0.93;;;19.20;45.60;;;;;;5028284;28;20462;-92
2022/04/12 06:59:37;;;;;;;1.10;1.00;;;19.30;45.50;;;;;;5029648;28;20250;-92
2022/04/12 07:02:03;;;;;;;1.00;0.90;;;19.40;45.40;;;;;;5029464;28;20216;-92
2022/04/12 07:04:29;;;;;;;1.20;1.10;;;19.40;45.30;;;;;;5027643;28;20515;-92
2022/04/12 07:06:56;;;;;;;1.10;1.00;;;19.40;45.20;;;;;;5026734;28;20188;-92
2022/04/12 07:09:27;;;;;;;1.20;1.07;;;19.50;45.20;;;;;;5027672;28;20172;-92
2022/04/12 07:11:54;;;;;;;1.80;1.30;;;19.60;45.10;;;;;;5029023;28;20602;-92
2022/04/12 07:14:20;;;;;;;0.97;0.90;;;19.60;45.10;;;;;;5029589;28;20472;-92
2022/04/12 07:16:45;;;;;;;1.07;1.00;;;19.60;45.20;;;;;;5030670;28;20494;-92
2022/04/12 07:19:11;;;;;;;1.33;0.97;;;19.60;45.20;;;;;;5029015;28;20626;-92
2022/04/12 07:21:37;;;;;;;1.10;1.00;;;19.70;45.10;;;;;;5030909;28;20173;-92
2022/04/12 07:24:03;;;;;;;1.20;1.10;;;19.70;45.10;;;;;;5029893;28;20231;-91
2022/04/12 07:26:30;;;;;;;1.53;0.90;;;19.70;45.10;;;;;;5029469;28;20169;-92
2022/04/12 07:28:56;;;;;;;2.17;1.37;;;19.80;45.00;;;;;;5029745;28;20184;-91
2022/04/12 07:31:22;;;;;;;1.17;1.07;;;19.90;44.80;;;;;;5029000;28;20180;-92
2022/04/12 07:33:47;;;;;;;1.10;1.00;;;20.00;44.80;;;;;;5028161;28;20188;-91
2022/04/12 07:36:14;;;;;;;1.43;1.30;;;20.20;44.80;;;;;;5029355;28;20230;-92
2022/04/12 07:38:41;;;;;;;1.20;1.10;;;20.20;44.60;;;;;;5030266;28;20499;-91
2022/04/12 07:41:08;;;;;;;1.10;1.00;;;20.20;44.60;;;;;;5030685;28;20168;-91
2022/04/12 07:43:34;;;;;;;1.77;1.30;;;20.10;44.70;;;;;;5030477;28;20423;-92
2022/04/12 07:46:00;;;;;;;2.00;1.10;;;20.30;44.60;;;;;;5030286;28;20184;-92
2022/04/12 07:48:26;;;;;;;1.57;1.10;;;20.30;44.60;;;;;;5029533;28;20595;-91
2022/04/12 07:50:52;;;;;;;2.53;1.20;;;20.30;44.50;;;;;;5028982;28;20227;-93
2022/04/12 07:53:18;;;;;;;1.40;1.03;;;20.40;44.40;;;;;;5029008;28;20184;-92
2022/04/12 07:55:44;;;;;;;1.13;1.03;;;20.50;44.40;;;;;;5027778;28;20173;-92
2022/04/12 07:58:10;;;;;;;1.37;1.20;;;20.60;44.20;;;;;;5030202;28;20253;-92
2022/04/12 08:00:36;;;;;;;1.00;0.90;;;20.80;44.20;;;;;;5029098;28;20212;-92
2022/04/12 08:03:01;;;;;;;1.30;1.10;;;20.90;44.00;;;;;;5030552;28;20201;-91
2022/04/12 08:05:27;;;;;;;0.80;0.80;;;21.00;43.90;;;;;;5033030;28;20527;-92
2022/04/12 08:07:53;;;;;;;1.00;0.90;;;21.10;43.80;;;;;;5033209;28;20169;-93
2022/04/12 08:10:20;;;;;;;1.10;1.00;;;21.20;43.70;;;;;;5032800;28;20367;-92
2022/04/12 08:12:46;;;;;;;2.30;1.07;;;21.30;43.60;;;;;;5030280;28;20231;-93
2022/04/12 08:15:15;;;;;;;1.03;0.93;;;21.30;43.60;;;;;;5031454;28;20546;-92
2022/04/12 08:17:42;;;;;;;1.37;1.10;;;21.40;43.50;;;;;;5030354;28;20169;-92
2022/04/12 08:20:09;;;;;;;0.90;0.90;;;21.40;43.60;;;;;;5033054;28;20169;-92
2022/04/12 08:22:36;;;;;;;3.93;1.40;;;21.20;43.60;;;;;;5033492;28;20495;-92
2022/04/12 08:25:02;;;;;;;3.73;1.20;;;21.40;44.40;;;;;;5031574;28;20179;-92
2022/04/12 08:27:28;;;;;;;4.97;1.23;;;21.80;45.50;;;;;;5031894;28;20264;-92
2022/04/12 08:29:53;;;;;;;7.33;1.50;;;22.00;45.80;;;;;;5034964;28;20248;-93
2022/04/12 08:32:21;;;;;;;3.90;1.20;;;22.20;45.90;;;;;;5034928;28;20318;-94
2022/04/12 08:34:49;;;;;;;3.23;1.43;;;22.40;46.00;;;;;;5039445;28;20195;-93
2022/04/12 08:37:15;;;;;;;4.73;1.47;;;22.40;46.20;;;;;;5044258;28;20184;-93
2022/04/12 08:39:41;;;;;;;2.87;1.20;;;22.50;46.20;;;;;;5034762;28;20177;-92
2022/04/12 08:42:07;;;;;;;7.27;1.50;;;22.70;46.10;;;;;;5033987;28;20213;-93
2022/04/12 08:44:36;;;;;;;4.47;1.60;;;22.80;46.10;;;;;;5036702;28;20232;-94
2022/04/12 08:47:04;;;;;;;6.47;1.50;;;23.00;46.00;;;;;;5041652;28;20169;-93
2022/04/12 08:49:30;;;;;;;4.18;1.52;;;23.10;45.60;;;;;;5039532;28;20173;-93
2022/04/12 08:51:56;;;;;;;3.10;1.35;;;23.10;45.50;;;;;;5040054;28;20181;-93
2022/04/12 08:54:23;;;;;;;3.33;1.27;;;23.10;45.40;;;;;;5042409;28;20280;-93
2022/04/12 08:56:50;;;;;;;11.77;1.63;;;23.00;45.30;;;;;;5041676;28;20170;-93
2022/04/12 08:59:17;;;;;;;5.47;1.58;;;23.00;45.20;;;;;;5041226;28;20258;-93
2022/04/12 09:01:44;;;;;;;4.80;1.40;;;23.10;45.00;;;;;;5040788;28;20180;-92
2022/04/12 09:04:11;;;;;;;5.93;1.70;;;23.10;44.70;;;;;;5039378;28;20205;-91
2022/04/12 09:06:52;;;;;;;5.03;1.50;;;23.30;44.40;;;;;;5039312;28;20319;-92
2022/04/12 09:09:20;;;;;;;5.05;1.65;;;23.30;44.10;;;;;;5038343;28;20180;-92
2022/04/12 09:12:04;;;;;;;2.65;1.52;;;23.10;44.00;;;;;;5037861;28;20384;-93
2022/04/12 09:14:52;;;;;;;6.37;1.80;;;22.90;44.30;;;;;;5037957;28;20181;-92
2022/04/12 09:17:30;;;;;;;4.63;1.60;;;22.70;44.20;;;;;;5037451;28;20216;-92
2022/04/12 09:19:56;;;;;;;3.50;1.60;;;22.90;44.20;;;;;;5035137;28;20602;-92
2022/04/12 09:22:28;;;;;;;5.13;1.90;;;23.10;44.10;;;;;;5036768;28;20473;-91
2022/04/12 09:24:57;;;;;;;6.82;1.98;;;23.20;43.70;;;;;;5029838;28;20504;-92
2022/04/12 09:27:28;;;;;;;8.32;1.90;;;23.40;43.40;;;;;;5029784;28;20181;-91
2022/04/12 09:30:02;;;;;;;9.45;2.03;;;23.30;43.00;;;;;;5031285;28;20169;-92
2022/04/12 09:32:29;;;;;;;9.27;2.13;;;23.40;43.30;;;;;;5031449;28;20196;-91
2022/04/12 09:34:56;;;;;;;3.78;1.60;;;23.40;43.30;;;;;;5031445;28;20173;-92
2022/04/12 09:37:28;;;;;;;9.07;1.70;;;23.30;43.30;;;;;;5033018;28;20219;-93
2022/04/12 09:39:59;;;;;;;6.22;2.22;;;23.30;43.40;;;;;;5030883;28;20204;-92
2022/04/12 09:42:50;;;;;;;3.88;1.75;;;23.30;43.30;;;;;;5030915;28;20537;-91
2022/04/12 09:45:18;;;;;;;2.97;1.48;;;23.00;43.30;;;;;;5030411;28;20172;-92
2022/04/12 09:47:48;;;;;;;8.00;2.13;;;22.70;43.60;;;;;;5016373;28;20455;-91
2022/04/12 09:50:14;;;;;;;4.50;2.05;;;22.30;43.90;;;;;;5034973;28;20184;-91
2022/04/12 09:52:53;;;;;;;3.33;1.58;;;22.00;44.20;;;;;;5030762;28;20407;-91
2022/04/12 09:55:38;;;;;;;3.65;1.70;;;21.70;44.50;;;;;;5028991;28;20275;-92
2022/04/12 09:58:07;;;;;;;5.30;1.95;;;21.60;44.70;;;;;;5028601;28;20307;-91
2022/04/12 10:00:35;;;;;;;4.68;1.65;;;21.50;44.90;;;;;;5029790;28;20344;-90
2022/04/12 10:03:03;;;;;;;3.53;1.70;;;21.40;45.00;;;;;;5029664;28;20269;-91
2022/04/12 10:05:30;;;;;;;3.05;1.60;;;21.40;45.10;;;;;;5027046;28;20180;-91
2022/04/12 10:08:00;;;;;;;4.70;1.90;;;21.30;45.20;;;;;;5030055;28;20169;-92
2022/04/12 10:10:26;;;;;;;3.95;1.63;;;21.30;45.20;;;;;;5028027;28;20203;-91
2022/04/12 10:12:58;;;;;;;2.78;1.60;;;21.20;45.30;;;;;;5029348;28;20172;-92
2022/04/12 10:15:28;;;;;;;2.60;1.70;;;21.10;45.30;;;;;;5028469;28;20208;-93
2022/04/12 10:17:55;;;;;;;1.88;1.50;;;21.10;45.40;;;;;;5029440;28;20180;-92
2022/04/12 10:20:22;;;;;;;4.65;1.65;;;21.00;45.40;;;;;;5030050;28;20173;-91
2022/04/12 10:22:49;;;;;;;3.40;1.80;;;21.00;45.20;;;;;;5029492;28;20344;-91
2022/04/12 10:25:21;;;;;;;4.03;1.70;;;20.90;45.10;;;;;;5034815;28;20179;-91
2022/04/12 10:27:50;;;;;;;4.37;1.70;;;20.90;45.20;;;;;;5054195;28;20172;-92
2022/04/12 10:30:16;;;;;;;2.50;1.50;;;20.90;45.20;;;;;;5055586;28;20196;-91
2022/04/12 10:33:08;;;;;;;2.10;1.43;;;20.90;45.20;;;;;;5054773;28;20223;-91
2022/04/12 10:35:45;;;;;;;2.30;1.50;;;20.90;45.20;;;;;;5054704;28;20279;-91
2022/04/12 10:38:16;;;;;;;3.43;1.70;;;20.80;45.10;;;;;;5049016;28;20180;-91
2022/04/12 10:40:43;;;;;;;3.03;1.50;;;20.80;45.10;;;;;;5048023;28;20247;-91
2022/04/12 10:43:21;;;;;;;3.57;1.40;;;20.80;45.10;;;;;;5049903;28;20296;-91
2022/04/12 10:45:49;;;;;;;2.60;1.40;;;20.80;45.10;;;;;;5051509;28;20242;-91
2022/04/12 10:48:24;;;;;;;1.90;1.40;;;20.80;44.90;;;;;;5050474;28;20204;-90
2022/04/12 10:50:52;;;;;;;1.50;1.40;;;20.70;44.90;;;;;;5049770;28;20184;-91
2022/04/12 10:53:39;;;;;;;2.80;1.50;;;20.80;45.20;;;;;;5050169;28;20173;-91
2022/04/12 10:56:09;;;;;;;1.83;1.33;;;20.70;45.00;;;;;;5049407;28;20365;-91
2022/04/12 10:58:36;;;;;;;1.53;1.30;;;20.70;45.20;;;;;;5051574;28;20184;-92
2022/04/12 11:01:04;;;;;;;2.20;1.20;;;20.70;45.20;;;;;;5049432;28;20460;-91
2022/04/12 11:03:42;;;;;;;1.47;1.20;;;20.70;45.10;;;;;;5051585;28;20205;-90
2022/04/12 11:06:32;;;;;;;2.37;1.50;;;20.70;45.20;;;;;;5050240;28;20243;-91
2022/04/12 11:09:15;;;;;;;1.93;1.50;;;20.70;45.30;;;;;;5049015;28;20267;-90
2022/04/12 11:11:42;;;;;;;2.97;1.20;;;20.70;45.40;;;;;;5050111;28;20693;-90
2022/04/12 11:14:32;;;;;;;1.87;1.30;;;20.70;45.50;;;;;;5049204;28;20184;-89
2022/04/12 11:17:03;;;;;;;1.90;1.40;;;20.70;45.60;;;;;;5048077;28;20209;-91
2022/04/12 11:19:43;;;;;;;2.87;1.47;;;20.70;45.70;;;;;;5049402;28;20343;-91
2022/04/12 11:22:14;;;;;;;1.40;1.20;;;20.70;45.70;;;;;;5047714;28;20259;-91
2022/04/12 11:24:40;;;;;;;2.57;1.30;;;20.70;45.70;;;;;;5048611;28;20172;-91
2022/04/12 11:27:12;;;;;;;1.27;1.13;;;20.70;45.90;;;;;;5047875;28;20179;-91
2022/04/12 11:29:40;;;;;;;1.27;1.17;;;20.70;45.90;;;;;;5047591;28;20388;-91
2022/04/12 11:32:07;;;;;;;3.00;1.30;;;20.70;45.90;;;;;;5046664;28;20364;-91
2022/04/12 11:34:36;;;;;;;2.07;1.40;;;20.70;46.00;;;;;;5048894;28;20223;-91
2022/04/12 11:37:08;;;;;;;1.83;1.30;;;20.70;46.00;;;;;;5048319;28;20176;-92
2022/04/12 11:39:43;;;;;;;3.63;1.40;;;20.70;46.10;;;;;;5053856;28;20267;-91
2022/04/12 11:42:11;;;;;;;2.07;1.30;;;20.70;46.10;;;;;;5052399;28;20177;-91
2022/04/12 11:44:37;;;;;;;2.03;1.10;;;20.70;46.10;;;;;;5053363;28;20253;-91
2022/04/12 11:47:08;;;;;;;1.70;1.30;;;20.70;46.20;;;;;;5055327;28;20430;-91
2022/04/12 11:49:37;;;;;;;2.90;1.30;;;20.70;46.20;;;;;;5055023;28;20171;-93
2022/04/12 11:52:05;;;;;;;6.13;1.47;;;20.60;46.20;;;;;;5058900;28;20164;-93
2022/04/12 11:54:33;;;;;;;4.33;1.40;;;20.70;46.30;;;;;;5057857;28;20180;-93
2022/04/12 11:57:03;;;;;;;4.13;1.30;;;20.70;46.40;;;;;;5060008;28;20167;-90
2022/04/12 11:59:31;;;;;;;4.07;1.20;;;20.70;46.40;;;;;;5059107;28;20227;-94
2022/04/12 12:02:00;;;;;;;1.30;1.07;;;20.70;46.40;;;;;;5060760;28;20186;-94
2022/04/12 12:04:31;;;;;;;2.03;1.20;;;20.70;46.40;;;;;;5059874;28;20180;-94
2022/04/12 12:07:03;;;;;;;3.30;1.20;;;20.70;46.50;;;;;;5054962;28;20407;-93
2022/04/12 12:09:30;;;;;;;2.00;1.30;;;20.80;46.60;;;;;;5054777;28;20176;-93
2022/04/12 12:12:06;;;;;;;1.53;1.20;;;20.80;46.50;;;;;;5057493;28;20172;-93
2022/04/12 12:14:33;;;;;;;2.90;1.30;;;20.80;46.60;;;;;;5058936;28;20176;-93
2022/04/12 12:17:02;;;;;;;2.87;1.30;;;20.80;46.60;;;;;;5057064;28;20184;-93
2022/04/12 12:19:29;;;;;;;2.40;1.10;;;20.80;46.70;;;;;;5054758;28;20479;-93
2022/04/12 12:21:56;;;;;;;1.93;1.00;;;20.80;46.70;;;;;;5059816;28;20251;-91
2022/04/12 12:24:21;;;;;;;1.30;1.13;;;20.80;46.70;;;;;;5059363;28;20527;-93
2022/04/12 12:26:54;;;;;;;3.40;1.20;;;20.80;46.80;;;;;;5059164;28;20497;-93
2022/04/12 12:29:24;;;;;;;1.57;1.00;;;20.80;46.80;;;;;;5063053;28;20183;-93
2022/04/12 12:31:49;;;;;;;1.80;1.30;;;20.80;46.80;;;;;;5058795;28;20275;-92
2022/04/12 12:34:28;;;;;;;2.80;1.10;;;20.80;46.80;;;;;;5057335;28;20184;-93
2022/04/12 12:36:55;;;;;;;1.40;1.00;;;20.80;46.90;;;;;;5053635;28;20176;-91
2022/04/12 12:39:21;;;;;;;1.60;1.00;;;20.80;46.90;;;;;;5053295;28;20238;-91
2022/04/12 12:41:47;;;;;;;1.80;1.20;;;20.90;46.90;;;;;;5052208;28;20188;-92
2022/04/12 12:44:13;;;;;;;1.20;1.00;;;20.90;46.90;;;;;;5053392;28;20501;-92
2022/04/12 12:46:39;;;;;;;1.50;1.10;;;20.90;47.00;;;;;;5051601;28;20318;-91
2022/04/12 12:49:18;;;;;;;1.77;1.00;;;20.90;46.90;;;;;;5050448;28;20179;-92
2022/04/12 12:51:44;;;;;;;1.40;1.07;;;20.90;46.90;;;;;;5048497;28;20373;-92
2022/04/12 12:54:15;;;;;;;2.63;1.10;;;20.90;46.90;;;;;;5047587;28;20172;-92